sensor_id;sensor_type;location;lat;lon;timestamp;temperature;humidity
39315;DHT22;28703;44.412;11.918;2023-04-16T00:00:51;13.80;99.90
39315;DHT22;28703;44.412;11.918;2023-04-16T00:03:17;13.80;99.90
39315;DHT22;28703;44.412;11.918;2023-04-16T00:05:42;13.80;99.90
39315;DHT22;28703;44.412;11.918;2023-04-16T00:08:08;13.80;99.90
39315;DHT22;28703;44.412;11.918;2023-04-16T00:10:34;13.80;99.90
39315;DHT22;28703;44.412;11.918;2023-04-16T00:12:59;13.80;99.90
39315;DHT22;28703;44.412;11.918;2023-04-16T00:15:25;13.80;99.90
39315;DHT22;28703;44.412;11.918;2023-04-16T00:17:51;13.80;99.90
39315;DHT22;28703;44.412;11.918;2023-04-16T00:20:17;13.80;99.90
39315;DHT22;28703;44.412;11.918;2023-04-16T00:22:44;13.80;99.90
39315;DHT22;28703;44.412;11.918;2023-04-16T00:25:10;13.80;99.90
39315;DHT22;28703;44.412;11.918;2023-04-16T00:27:36;13.80;99.90
39315;DHT22;28703;44.412;11.918;2023-04-16T00:30:02;13.80;99.90
39315;DHT22;28703;44.412;11.918;2023-04-16T00:32:28;13.70;99.90
39315;DHT22;28703;44.412;11.918;2023-04-16T00:34:54;13.70;99.90
39315;DHT22;28703;44.412;11.918;2023-04-16T00:37:19;13.70;99.90
39315;DHT22;28703;44.412;11.918;2023-04-16T00:39:45;13.70;99.90
39315;DHT22;28703;44.412;11.918;2023-04-16T00:42:11;13.70;99.90
39315;DHT22;28703;44.412;11.918;2023-04-16T00:44:37;13.60;99.90
39315;DHT22;28703;44.412;11.918;2023-04-16T00:47:02;13.60;99.90
39315;DHT22;28703;44.412;11.918;2023-04-16T00:49:28;13.60;99.90
39315;DHT22;28703;44.412;11.918;2023-04-16T00:51:55;13.50;99.90
39315;DHT22;28703;44.412;11.918;2023-04-16T00:54:21;13.40;99.90
39315;DHT22;28703;44.412;11.918;2023-04-16T00:56:48;13.40;99.90
39315;DHT22;28703;44.412;11.918;2023-04-16T00:59:14;13.40;99.90
39315;DHT22;28703;44.412;11.918;2023-04-16T01:01:40;13.40;99.90
39315;DHT22;28703;44.412;11.918;2023-04-16T01:04:06;13.30;99.90
39315;DHT22;28703;44.412;11.918;2023-04-16T01:06:32;13.30;99.90
39315;DHT22;28703;44.412;11.918;2023-04-16T01:08:58;13.20;99.90
39315;DHT22;28703;44.412;11.918;2023-04-16T01:11:24;13.10;99.90
39315;DHT22;28703;44.412;11.918;2023-04-16T01:13:50;13.10;99.90
39315;DHT22;28703;44.412;11.918;2023-04-16T01:16:16;13.10;99.90
39315;DHT22;28703;44.412;11.918;2023-04-16T01:18:41;13.10;99.90
39315;DHT22;28703;44.412;11.918;2023-04-16T01:21:07;13.00;99.90
39315;DHT22;28703;44.412;11.918;2023-04-16T01:23:33;12.90;99.90
39315;DHT22;28703;44.412;11.918;2023-04-16T01:25:59;12.90;99.90
39315;DHT22;28703;44.412;11.918;2023-04-16T01:28:25;12.90;99.90
39315;DHT22;28703;44.412;11.918;2023-04-16T01:30:50;12.90;99.90
39315;DHT22;28703;44.412;11.918;2023-04-16T01:33:45;12.80;99.90
39315;DHT22;28703;44.412;11.918;2023-04-16T01:36:11;12.80;99.90
39315;DHT22;28703;44.412;11.918;2023-04-16T01:38:37;12.70;99.90
39315;DHT22;28703;44.412;11.918;2023-04-16T01:41:02;12.70;99.90
39315;DHT22;28703;44.412;11.918;2023-04-16T01:43:28;12.70;99.90
39315;DHT22;28703;44.412;11.918;2023-04-16T01:45:58;12.70;99.90
39315;DHT22;28703;44.412;11.918;2023-04-16T01:48:33;12.60;99.90
39315;DHT22;28703;44.412;11.918;2023-04-16T01:50:59;12.60;99.90
39315;DHT22;28703;44.412;11.918;2023-04-16T01:53:25;12.50;99.90
39315;DHT22;28703;44.412;11.918;2023-04-16T01:55:50;12.40;99.90
39315;DHT22;28703;44.412;11.918;2023-04-16T01:58:16;12.40;99.90
39315;DHT22;28703;44.412;11.918;2023-04-16T02:00:42;12.30;99.90
39315;DHT22;28703;44.412;11.918;2023-04-16T02:03:08;12.30;99.90
39315;DHT22;28703;44.412;11.918;2023-04-16T02:05:34;12.20;99.90
39315;DHT22;28703;44.412;11.918;2023-04-16T02:07:59;12.20;99.90
39315;DHT22;28703;44.412;11.918;2023-04-16T02:10:25;12.20;99.90
39315;DHT22;28703;44.412;11.918;2023-04-16T02:12:51;12.20;99.90
39315;DHT22;28703;44.412;11.918;2023-04-16T02:15:17;12.10;99.90
39315;DHT22;28703;44.412;11.918;2023-04-16T02:17:43;12.10;99.90
39315;DHT22;28703;44.412;11.918;2023-04-16T02:20:12;12.10;99.90
39315;DHT22;28703;44.412;11.918;2023-04-16T02:22:45;12.10;99.90
39315;DHT22;28703;44.412;11.918;2023-04-16T02:25:14;12.10;99.90
39315;DHT22;28703;44.412;11.918;2023-04-16T02:27:41;12.10;99.90
39315;DHT22;28703;44.412;11.918;2023-04-16T02:30:22;12.10;99.90
39315;DHT22;28703;44.412;11.918;2023-04-16T02:32:47;12.10;99.90
39315;DHT22;28703;44.412;11.918;2023-04-16T02:35:15;12.10;99.90
39315;DHT22;28703;44.412;11.918;2023-04-16T02:37:41;12.10;99.90
39315;DHT22;28703;44.412;11.918;2023-04-16T02:40:07;12.10;99.90
39315;DHT22;28703;44.412;11.918;2023-04-16T02:42:33;12.10;99.90
39315;DHT22;28703;44.412;11.918;2023-04-16T02:44:58;12.10;99.90
39315;DHT22;28703;44.412;11.918;2023-04-16T02:47:24;12.10;99.90
39315;DHT22;28703;44.412;11.918;2023-04-16T02:49:50;12.00;99.90
39315;DHT22;28703;44.412;11.918;2023-04-16T02:52:16;12.00;99.90
39315;DHT22;28703;44.412;11.918;2023-04-16T02:54:41;12.00;99.90
39315;DHT22;28703;44.412;11.918;2023-04-16T02:57:07;11.90;99.90
39315;DHT22;28703;44.412;11.918;2023-04-16T02:59:33;11.90;99.90
39315;DHT22;28703;44.412;11.918;2023-04-16T03:01:58;11.90;99.90
39315;DHT22;28703;44.412;11.918;2023-04-16T03:04:24;11.80;99.90
39315;DHT22;28703;44.412;11.918;2023-04-16T03:06:50;11.80;99.90
39315;DHT22;28703;44.412;11.918;2023-04-16T03:09:15;11.70;99.90
39315;DHT22;28703;44.412;11.918;2023-04-16T03:11:41;11.70;99.90
39315;DHT22;28703;44.412;11.918;2023-04-16T03:14:07;11.70;99.90
39315;DHT22;28703;44.412;11.918;2023-04-16T03:16:33;11.60;99.90
39315;DHT22;28703;44.412;11.918;2023-04-16T03:18:58;11.60;99.90
39315;DHT22;28703;44.412;11.918;2023-04-16T03:21:24;11.60;99.90
39315;DHT22;28703;44.412;11.918;2023-04-16T03:23:51;11.60;99.90
39315;DHT22;28703;44.412;11.918;2023-04-16T03:26:20;11.50;99.90
39315;DHT22;28703;44.412;11.918;2023-04-16T03:28:46;11.50;99.90
39315;DHT22;28703;44.412;11.918;2023-04-16T03:31:12;11.50;99.90
39315;DHT22;28703;44.412;11.918;2023-04-16T03:33:38;11.40;99.90
39315;DHT22;28703;44.412;11.918;2023-04-16T03:36:04;11.30;99.90
39315;DHT22;28703;44.412;11.918;2023-04-16T03:38:30;11.30;99.90
39315;DHT22;28703;44.412;11.918;2023-04-16T03:40:57;11.20;99.90
39315;DHT22;28703;44.412;11.918;2023-04-16T03:43:24;11.20;99.90
39315;DHT22;28703;44.412;11.918;2023-04-16T03:45:53;11.20;99.90
39315;DHT22;28703;44.412;11.918;2023-04-16T03:48:22;11.20;99.90
39315;DHT22;28703;44.412;11.918;2023-04-16T03:50:47;11.20;99.90
39315;DHT22;28703;44.412;11.918;2023-04-16T03:53:15;11.10;99.90
39315;DHT22;28703;44.412;11.918;2023-04-16T03:55:41;11.10;99.90
39315;DHT22;28703;44.412;11.918;2023-04-16T03:58:08;11.00;99.90
39315;DHT22;28703;44.412;11.918;2023-04-16T04:00:34;11.00;99.90
39315;DHT22;28703;44.412;11.918;2023-04-16T04:03:07;11.00;99.90
39315;DHT22;28703;44.412;11.918;2023-04-16T04:05:37;10.90;99.90
39315;DHT22;28703;44.412;11.918;2023-04-16T04:08:07;10.90;99.90
39315;DHT22;28703;44.412;11.918;2023-04-16T04:10:35;10.80;99.90
39315;DHT22;28703;44.412;11.918;2023-04-16T04:13:03;10.60;99.90
39315;DHT22;28703;44.412;11.918;2023-04-16T04:15:31;10.50;99.90
39315;DHT22;28703;44.412;11.918;2023-04-16T04:17:57;10.30;99.90
39315;DHT22;28703;44.412;11.918;2023-04-16T04:20:23;10.30;99.90
39315;DHT22;28703;44.412;11.918;2023-04-16T04:22:50;10.40;99.90
39315;DHT22;28703;44.412;11.918;2023-04-16T04:25:16;10.40;99.90
39315;DHT22;28703;44.412;11.918;2023-04-16T04:27:42;10.40;99.90
39315;DHT22;28703;44.412;11.918;2023-04-16T04:30:08;10.40;99.90
39315;DHT22;28703;44.412;11.918;2023-04-16T04:32:34;10.40;99.90
39315;DHT22;28703;44.412;11.918;2023-04-16T04:35:01;10.30;99.90
39315;DHT22;28703;44.412;11.918;2023-04-16T04:37:26;10.30;99.90
39315;DHT22;28703;44.412;11.918;2023-04-16T04:39:52;10.40;99.90
39315;DHT22;28703;44.412;11.918;2023-04-16T04:42:19;10.30;99.90
39315;DHT22;28703;44.412;11.918;2023-04-16T04:44:45;10.30;99.90
39315;DHT22;28703;44.412;11.918;2023-04-16T04:47:11;10.20;99.90
39315;DHT22;28703;44.412;11.918;2023-04-16T04:49:39;10.20;99.90
39315;DHT22;28703;44.412;11.918;2023-04-16T04:52:05;10.20;99.90
39315;DHT22;28703;44.412;11.918;2023-04-16T04:54:31;10.20;99.90
39315;DHT22;28703;44.412;11.918;2023-04-16T04:56:57;10.10;99.90
39315;DHT22;28703;44.412;11.918;2023-04-16T04:59:23;10.10;99.90
39315;DHT22;28703;44.412;11.918;2023-04-16T05:01:49;10.10;99.90
39315;DHT22;28703;44.412;11.918;2023-04-16T05:04:15;10.10;99.90
39315;DHT22;28703;44.412;11.918;2023-04-16T05:06:41;10.20;99.90
39315;DHT22;28703;44.412;11.918;2023-04-16T05:09:07;10.20;99.90
39315;DHT22;28703;44.412;11.918;2023-04-16T05:11:40;10.10;99.90
39315;DHT22;28703;44.412;11.918;2023-04-16T05:14:05;10.10;99.90
39315;DHT22;28703;44.412;11.918;2023-04-16T05:16:31;10.10;99.90
39315;DHT22;28703;44.412;11.918;2023-04-16T05:18:57;10.20;99.90
39315;DHT22;28703;44.412;11.918;2023-04-16T05:21:24;10.20;99.90
39315;DHT22;28703;44.412;11.918;2023-04-16T05:23:50;10.20;99.90
39315;DHT22;28703;44.412;11.918;2023-04-16T05:26:16;10.30;99.90
39315;DHT22;28703;44.412;11.918;2023-04-16T05:28:42;10.30;99.90
39315;DHT22;28703;44.412;11.918;2023-04-16T05:31:08;10.30;99.90
39315;DHT22;28703;44.412;11.918;2023-04-16T05:33:33;10.30;99.90
39315;DHT22;28703;44.412;11.918;2023-04-16T05:35:59;10.30;99.90
39315;DHT22;28703;44.412;11.918;2023-04-16T05:38:25;10.20;99.90
39315;DHT22;28703;44.412;11.918;2023-04-16T05:40:51;10.20;99.90
39315;DHT22;28703;44.412;11.918;2023-04-16T05:43:16;10.30;99.90
39315;DHT22;28703;44.412;11.918;2023-04-16T05:45:42;10.30;99.90
39315;DHT22;28703;44.412;11.918;2023-04-16T05:48:08;10.30;99.90
39315;DHT22;28703;44.412;11.918;2023-04-16T05:50:34;10.30;99.90
39315;DHT22;28703;44.412;11.918;2023-04-16T05:53:01;10.40;99.90
39315;DHT22;28703;44.412;11.918;2023-04-16T05:55:27;10.40;99.90
39315;DHT22;28703;44.412;11.918;2023-04-16T05:57:55;10.50;99.90
39315;DHT22;28703;44.412;11.918;2023-04-16T06:00:21;10.40;99.90
39315;DHT22;28703;44.412;11.918;2023-04-16T06:02:46;10.40;99.90
39315;DHT22;28703;44.412;11.918;2023-04-16T06:05:12;10.30;99.90
39315;DHT22;28703;44.412;11.918;2023-04-16T06:07:38;10.40;99.90
39315;DHT22;28703;44.412;11.918;2023-04-16T06:10:05;10.40;99.90
39315;DHT22;28703;44.412;11.918;2023-04-16T06:12:34;10.50;99.90
39315;DHT22;28703;44.412;11.918;2023-04-16T06:15:00;10.50;99.90
39315;DHT22;28703;44.412;11.918;2023-04-16T06:17:25;10.60;99.90
39315;DHT22;28703;44.412;11.918;2023-04-16T06:19:51;10.60;99.90
39315;DHT22;28703;44.412;11.918;2023-04-16T06:22:17;10.60;99.90
39315;DHT22;28703;44.412;11.918;2023-04-16T06:24:57;10.70;99.90
39315;DHT22;28703;44.412;11.918;2023-04-16T06:27:22;10.70;99.90
39315;DHT22;28703;44.412;11.918;2023-04-16T06:29:48;10.70;99.90
39315;DHT22;28703;44.412;11.918;2023-04-16T06:32:15;10.80;99.90
39315;DHT22;28703;44.412;11.918;2023-04-16T06:34:41;10.80;99.90
39315;DHT22;28703;44.412;11.918;2023-04-16T06:37:10;10.90;99.90
39315;DHT22;28703;44.412;11.918;2023-04-16T06:39:36;11.00;99.90
39315;DHT22;28703;44.412;11.918;2023-04-16T06:42:05;11.00;99.90
39315;DHT22;28703;44.412;11.918;2023-04-16T06:44:33;11.10;99.90
39315;DHT22;28703;44.412;11.918;2023-04-16T06:46:59;11.20;99.90
39315;DHT22;28703;44.412;11.918;2023-04-16T06:49:25;11.20;99.90
39315;DHT22;28703;44.412;11.918;2023-04-16T06:51:51;11.30;99.90
39315;DHT22;28703;44.412;11.918;2023-04-16T06:54:17;11.40;99.90
39315;DHT22;28703;44.412;11.918;2023-04-16T06:56:44;11.40;99.90
39315;DHT22;28703;44.412;11.918;2023-04-16T06:59:10;11.40;99.90
39315;DHT22;28703;44.412;11.918;2023-04-16T07:01:35;11.40;99.90
39315;DHT22;28703;44.412;11.918;2023-04-16T07:04:01;11.50;99.90
39315;DHT22;28703;44.412;11.918;2023-04-16T07:06:27;11.60;99.90
39315;DHT22;28703;44.412;11.918;2023-04-16T07:08:53;11.70;99.90
39315;DHT22;28703;44.412;11.918;2023-04-16T07:11:19;11.80;99.90
39315;DHT22;28703;44.412;11.918;2023-04-16T07:13:45;11.80;99.90
39315;DHT22;28703;44.412;11.918;2023-04-16T07:16:11;11.90;99.90
39315;DHT22;28703;44.412;11.918;2023-04-16T07:18:36;12.00;99.90
39315;DHT22;28703;44.412;11.918;2023-04-16T07:21:05;12.10;99.90
39315;DHT22;28703;44.412;11.918;2023-04-16T07:23:31;12.20;99.90
39315;DHT22;28703;44.412;11.918;2023-04-16T07:25:57;12.30;99.90
39315;DHT22;28703;44.412;11.918;2023-04-16T07:28:22;12.30;99.90
39315;DHT22;28703;44.412;11.918;2023-04-16T07:30:49;12.40;99.90
39315;DHT22;28703;44.412;11.918;2023-04-16T07:33:15;12.40;99.90
39315;DHT22;28703;44.412;11.918;2023-04-16T07:35:41;12.50;99.90
39315;DHT22;28703;44.412;11.918;2023-04-16T07:38:09;12.60;99.90
39315;DHT22;28703;44.412;11.918;2023-04-16T07:40:38;12.70;99.90
39315;DHT22;28703;44.412;11.918;2023-04-16T07:43:04;12.70;99.90
39315;DHT22;28703;44.412;11.918;2023-04-16T07:45:32;12.70;99.90
39315;DHT22;28703;44.412;11.918;2023-04-16T07:47:58;12.80;99.90
39315;DHT22;28703;44.412;11.918;2023-04-16T07:50:24;12.90;99.90
39315;DHT22;28703;44.412;11.918;2023-04-16T07:52:49;13.00;99.90
39315;DHT22;28703;44.412;11.918;2023-04-16T07:55:15;13.10;99.90
39315;DHT22;28703;44.412;11.918;2023-04-16T07:57:41;13.10;99.90
39315;DHT22;28703;44.412;11.918;2023-04-16T08:00:08;13.20;99.90
39315;DHT22;28703;44.412;11.918;2023-04-16T08:02:40;13.20;99.90
39315;DHT22;28703;44.412;11.918;2023-04-16T08:05:06;13.30;99.90
39315;DHT22;28703;44.412;11.918;2023-04-16T08:07:32;13.40;99.90
39315;DHT22;28703;44.412;11.918;2023-04-16T08:09:57;13.50;99.90
39315;DHT22;28703;44.412;11.918;2023-04-16T08:12:23;13.50;99.90
39315;DHT22;28703;44.412;11.918;2023-04-16T08:14:49;13.50;99.90
39315;DHT22;28703;44.412;11.918;2023-04-16T08:17:15;13.50;99.90
39315;DHT22;28703;44.412;11.918;2023-04-16T08:19:41;13.60;99.90
39315;DHT22;28703;44.412;11.918;2023-04-16T08:22:08;13.60;99.90
39315;DHT22;28703;44.412;11.918;2023-04-16T08:24:36;13.70;99.90
39315;DHT22;28703;44.412;11.918;2023-04-16T08:27:08;13.80;99.90
39315;DHT22;28703;44.412;11.918;2023-04-16T08:29:37;13.80;99.90
39315;DHT22;28703;44.412;11.918;2023-04-16T08:32:03;13.90;99.90
39315;DHT22;28703;44.412;11.918;2023-04-16T08:34:29;13.90;99.90
39315;DHT22;28703;44.412;11.918;2023-04-16T08:36:55;14.00;99.90
39315;DHT22;28703;44.412;11.918;2023-04-16T08:39:23;14.10;99.90
39315;DHT22;28703;44.412;11.918;2023-04-16T08:41:49;14.10;99.90
39315;DHT22;28703;44.412;11.918;2023-04-16T08:44:20;14.10;99.90
39315;DHT22;28703;44.412;11.918;2023-04-16T08:46:47;14.20;99.90
39315;DHT22;28703;44.412;11.918;2023-04-16T08:49:15;14.30;99.90
39315;DHT22;28703;44.412;11.918;2023-04-16T08:51:42;14.30;99.90
39315;DHT22;28703;44.412;11.918;2023-04-16T08:54:11;14.40;99.90
39315;DHT22;28703;44.412;11.918;2023-04-16T08:56:39;14.50;99.90
39315;DHT22;28703;44.412;11.918;2023-04-16T08:59:07;14.50;99.90
39315;DHT22;28703;44.412;11.918;2023-04-16T09:01:34;14.60;99.50
39315;DHT22;28703;44.412;11.918;2023-04-16T09:04:00;14.60;98.70
39315;DHT22;28703;44.412;11.918;2023-04-16T09:06:27;14.60;98.90
39315;DHT22;28703;44.412;11.918;2023-04-16T09:08:53;14.70;99.00
39315;DHT22;28703;44.412;11.918;2023-04-16T09:11:19;14.70;98.50
39315;DHT22;28703;44.412;11.918;2023-04-16T09:13:45;14.70;98.20
39315;DHT22;28703;44.412;11.918;2023-04-16T09:16:12;14.80;98.70
39315;DHT22;28703;44.412;11.918;2023-04-16T09:18:38;14.80;98.20
39315;DHT22;28703;44.412;11.918;2023-04-16T09:21:04;14.90;98.40
39315;DHT22;28703;44.412;11.918;2023-04-16T09:23:30;15.00;98.30
39315;DHT22;28703;44.412;11.918;2023-04-16T09:25:57;15.00;97.90
39315;DHT22;28703;44.412;11.918;2023-04-16T09:31:15;15.10;97.20
39315;DHT22;28703;44.412;11.918;2023-04-16T09:33:41;15.10;97.00
39315;DHT22;28703;44.412;11.918;2023-04-16T09:36:07;15.20;96.30
39315;DHT22;28703;44.412;11.918;2023-04-16T09:38:49;15.20;95.90
39315;DHT22;28703;44.412;11.918;2023-04-16T09:41:15;15.30;95.50
39315;DHT22;28703;44.412;11.918;2023-04-16T09:44:14;15.30;95.10
39315;DHT22;28703;44.412;11.918;2023-04-16T09:46:34;15.40;95.30
39315;DHT22;28703;44.412;11.918;2023-04-16T09:49:09;15.40;95.30
39315;DHT22;28703;44.412;11.918;2023-04-16T09:51:44;15.50;94.40
39315;DHT22;28703;44.412;11.918;2023-04-16T09:54:10;15.60;94.30
39315;DHT22;28703;44.412;11.918;2023-04-16T09:56:43;15.60;93.90
39315;DHT22;28703;44.412;11.918;2023-04-16T09:59:19;15.70;93.60
39315;DHT22;28703;44.412;11.918;2023-04-16T10:01:46;15.70;93.10
39315;DHT22;28703;44.412;11.918;2023-04-16T10:04:13;15.90;93.00
39315;DHT22;28703;44.412;11.918;2023-04-16T10:06:40;15.90;91.80
39315;DHT22;28703;44.412;11.918;2023-04-16T10:09:06;16.00;91.70
39315;DHT22;28703;44.412;11.918;2023-04-16T10:11:32;16.00;91.70
39315;DHT22;28703;44.412;11.918;2023-04-16T10:13:58;16.10;92.60
39315;DHT22;28703;44.412;11.918;2023-04-16T10:16:24;16.10;91.70
39315;DHT22;28703;44.412;11.918;2023-04-16T10:18:50;16.10;91.30
39315;DHT22;28703;44.412;11.918;2023-04-16T10:21:16;16.20;91.00
39315;DHT22;28703;44.412;11.918;2023-04-16T10:23:42;16.20;91.60
39315;DHT22;28703;44.412;11.918;2023-04-16T10:26:08;16.30;91.90
39315;DHT22;28703;44.412;11.918;2023-04-16T10:28:33;16.30;91.70
39315;DHT22;28703;44.412;11.918;2023-04-16T10:31:04;16.40;91.60
39315;DHT22;28703;44.412;11.918;2023-04-16T10:33:31;16.50;92.10
39315;DHT22;28703;44.412;11.918;2023-04-16T10:38:33;16.60;90.90
39315;DHT22;28703;44.412;11.918;2023-04-16T10:41:03;16.60;91.40
39315;DHT22;28703;44.412;11.918;2023-04-16T10:43:29;16.70;90.80
39315;DHT22;28703;44.412;11.918;2023-04-16T10:45:55;16.80;91.00
39315;DHT22;28703;44.412;11.918;2023-04-16T10:48:24;16.80;89.30
39315;DHT22;28703;44.412;11.918;2023-04-16T10:50:56;16.90;87.80
39315;DHT22;28703;44.412;11.918;2023-04-16T10:53:23;16.90;87.50
39315;DHT22;28703;44.412;11.918;2023-04-16T10:58:29;17.00;88.70
39315;DHT22;28703;44.412;11.918;2023-04-16T11:00:58;17.00;88.00
39315;DHT22;28703;44.412;11.918;2023-04-16T11:03:24;17.00;86.30
39315;DHT22;28703;44.412;11.918;2023-04-16T11:05:50;17.10;86.10
39315;DHT22;28703;44.412;11.918;2023-04-16T11:08:15;17.10;86.60
39315;DHT22;28703;44.412;11.918;2023-04-16T11:10:41;17.10;87.40
39315;DHT22;28703;44.412;11.918;2023-04-16T11:13:07;17.10;87.60
39315;DHT22;28703;44.412;11.918;2023-04-16T11:15:33;17.20;87.10
39315;DHT22;28703;44.412;11.918;2023-04-16T11:17:59;17.30;88.40
39315;DHT22;28703;44.412;11.918;2023-04-16T11:20:25;17.30;86.20
39315;DHT22;28703;44.412;11.918;2023-04-16T11:22:52;17.40;86.50
39315;DHT22;28703;44.412;11.918;2023-04-16T11:25:19;17.40;87.00
39315;DHT22;28703;44.412;11.918;2023-04-16T11:27:46;17.40;85.60
39315;DHT22;28703;44.412;11.918;2023-04-16T11:30:11;17.40;83.50
39315;DHT22;28703;44.412;11.918;2023-04-16T11:32:38;17.40;84.60
39315;DHT22;28703;44.412;11.918;2023-04-16T11:35:06;17.40;83.60
39315;DHT22;28703;44.412;11.918;2023-04-16T11:37:37;17.40;83.70
39315;DHT22;28703;44.412;11.918;2023-04-16T11:40:03;17.40;84.10
39315;DHT22;28703;44.412;11.918;2023-04-16T11:42:31;17.40;83.50
39315;DHT22;28703;44.412;11.918;2023-04-16T11:45:00;17.50;84.70
39315;DHT22;28703;44.412;11.918;2023-04-16T11:47:27;17.60;84.40
39315;DHT22;28703;44.412;11.918;2023-04-16T11:49:53;17.70;85.90
39315;DHT22;28703;44.412;11.918;2023-04-16T11:52:53;17.80;84.00
39315;DHT22;28703;44.412;11.918;2023-04-16T11:55:11;17.80;84.20
39315;DHT22;28703;44.412;11.918;2023-04-16T11:57:37;17.90;85.50
39315;DHT22;28703;44.412;11.918;2023-04-16T12:00:03;17.90;85.50
39315;DHT22;28703;44.412;11.918;2023-04-16T12:02:43;18.00;85.10
39315;DHT22;28703;44.412;11.918;2023-04-16T12:05:27;18.00;83.10
39315;DHT22;28703;44.412;11.918;2023-04-16T12:07:53;18.10;84.40
39315;DHT22;28703;44.412;11.918;2023-04-16T12:10:25;18.10;84.30
39315;DHT22;28703;44.412;11.918;2023-04-16T12:12:59;18.20;83.00
39315;DHT22;28703;44.412;11.918;2023-04-16T12:15:43;18.20;83.80
39315;DHT22;28703;44.412;11.918;2023-04-16T12:18:10;18.30;83.60
39315;DHT22;28703;44.412;11.918;2023-04-16T12:20:39;18.30;84.10
39315;DHT22;28703;44.412;11.918;2023-04-16T12:23:08;18.40;84.60
39315;DHT22;28703;44.412;11.918;2023-04-16T12:25:41;18.50;85.00
39315;DHT22;28703;44.412;11.918;2023-04-16T12:28:09;18.50;85.60
39315;DHT22;28703;44.412;11.918;2023-04-16T12:30:47;18.60;85.00
39315;DHT22;28703;44.412;11.918;2023-04-16T12:33:16;18.60;85.70
39315;DHT22;28703;44.412;11.918;2023-04-16T12:35:42;18.70;85.50
39315;DHT22;28703;44.412;11.918;2023-04-16T12:38:10;18.90;84.50
39315;DHT22;28703;44.412;11.918;2023-04-16T12:40:37;18.90;85.30
39315;DHT22;28703;44.412;11.918;2023-04-16T12:43:05;19.10;86.20
39315;DHT22;28703;44.412;11.918;2023-04-16T12:45:31;19.20;86.00
39315;DHT22;28703;44.412;11.918;2023-04-16T12:47:57;19.30;85.40
39315;DHT22;28703;44.412;11.918;2023-04-16T12:50:22;19.30;84.10
39315;DHT22;28703;44.412;11.918;2023-04-16T12:52:48;19.40;82.00
39315;DHT22;28703;44.412;11.918;2023-04-16T12:55:14;19.40;81.70
39315;DHT22;28703;44.412;11.918;2023-04-16T12:57:43;19.50;81.80
39315;DHT22;28703;44.412;11.918;2023-04-16T13:00:11;19.60;82.40
39315;DHT22;28703;44.412;11.918;2023-04-16T13:02:37;19.70;83.50
39315;DHT22;28703;44.412;11.918;2023-04-16T13:05:03;19.80;83.60
39315;DHT22;28703;44.412;11.918;2023-04-16T13:07:29;19.90;82.40
39315;DHT22;28703;44.412;11.918;2023-04-16T13:09:58;19.90;82.40
39315;DHT22;28703;44.412;11.918;2023-04-16T13:12:25;20.00;82.90
39315;DHT22;28703;44.412;11.918;2023-04-16T13:14:58;20.00;83.00
39315;DHT22;28703;44.412;11.918;2023-04-16T13:17:24;20.10;82.70
39315;DHT22;28703;44.412;11.918;2023-04-16T13:19:52;20.20;83.30
39315;DHT22;28703;44.412;11.918;2023-04-16T13:22:23;20.30;82.80
39315;DHT22;28703;44.412;11.918;2023-04-16T13:24:49;20.40;82.40
39315;DHT22;28703;44.412;11.918;2023-04-16T13:27:16;20.60;81.40
39315;DHT22;28703;44.412;11.918;2023-04-16T13:29:42;20.70;82.00
39315;DHT22;28703;44.412;11.918;2023-04-16T13:32:09;20.80;80.70
39315;DHT22;28703;44.412;11.918;2023-04-16T13:34:41;21.00;80.50
39315;DHT22;28703;44.412;11.918;2023-04-16T13:37:07;21.00;78.60
39315;DHT22;28703;44.412;11.918;2023-04-16T13:39:35;21.10;79.40
39315;DHT22;28703;44.412;11.918;2023-04-16T13:42:06;21.10;78.80
39315;DHT22;28703;44.412;11.918;2023-04-16T13:44:32;21.20;77.90
39315;DHT22;28703;44.412;11.918;2023-04-16T13:46:58;21.30;77.20
39315;DHT22;28703;44.412;11.918;2023-04-16T13:49:24;21.50;78.10
39315;DHT22;28703;44.412;11.918;2023-04-16T13:51:51;21.60;78.70
39315;DHT22;28703;44.412;11.918;2023-04-16T13:54:17;21.70;79.00
39315;DHT22;28703;44.412;11.918;2023-04-16T13:56:43;21.80;79.50
39315;DHT22;28703;44.412;11.918;2023-04-16T13:59:21;21.90;79.80
39315;DHT22;28703;44.412;11.918;2023-04-16T14:01:47;22.00;79.70
39315;DHT22;28703;44.412;11.918;2023-04-16T14:04:13;22.10;79.80
39315;DHT22;28703;44.412;11.918;2023-04-16T14:06:41;22.30;78.70
39315;DHT22;28703;44.412;11.918;2023-04-16T14:09:07;22.40;78.30
39315;DHT22;28703;44.412;11.918;2023-04-16T14:11:35;22.50;75.80
39315;DHT22;28703;44.412;11.918;2023-04-16T14:14:01;22.50;76.10
39315;DHT22;28703;44.412;11.918;2023-04-16T14:16:26;22.60;76.20
39315;DHT22;28703;44.412;11.918;2023-04-16T14:18:52;22.70;76.00
39315;DHT22;28703;44.412;11.918;2023-04-16T14:21:18;22.80;77.20
39315;DHT22;28703;44.412;11.918;2023-04-16T14:23:44;22.90;76.40
39315;DHT22;28703;44.412;11.918;2023-04-16T14:26:09;23.00;76.80
39315;DHT22;28703;44.412;11.918;2023-04-16T14:28:35;23.10;75.30
39315;DHT22;28703;44.412;11.918;2023-04-16T14:31:01;23.20;75.60
39315;DHT22;28703;44.412;11.918;2023-04-16T14:33:27;23.30;75.20
39315;DHT22;28703;44.412;11.918;2023-04-16T14:35:53;23.40;75.70
39315;DHT22;28703;44.412;11.918;2023-04-16T14:38:19;23.50;76.10
39315;DHT22;28703;44.412;11.918;2023-04-16T14:40:45;23.60;76.60
39315;DHT22;28703;44.412;11.918;2023-04-16T14:43:11;23.80;76.00
39315;DHT22;28703;44.412;11.918;2023-04-16T14:45:36;23.80;75.40
39315;DHT22;28703;44.412;11.918;2023-04-16T14:48:02;24.00;75.90
39315;DHT22;28703;44.412;11.918;2023-04-16T14:50:28;24.10;75.50
39315;DHT22;28703;44.412;11.918;2023-04-16T14:52:56;24.20;74.10
39315;DHT22;28703;44.412;11.918;2023-04-16T14:55:22;24.30;75.10
39315;DHT22;28703;44.412;11.918;2023-04-16T14:57:48;24.40;75.20
39315;DHT22;28703;44.412;11.918;2023-04-16T15:00:15;24.60;75.30
39315;DHT22;28703;44.412;11.918;2023-04-16T15:02:43;24.60;74.10
39315;DHT22;28703;44.412;11.918;2023-04-16T15:05:10;24.70;75.00
39315;DHT22;28703;44.412;11.918;2023-04-16T15:07:36;24.80;74.80
39315;DHT22;28703;44.412;11.918;2023-04-16T15:10:02;24.80;75.00
39315;DHT22;28703;44.412;11.918;2023-04-16T15:12:28;24.80;74.60
39315;DHT22;28703;44.412;11.918;2023-04-16T15:14:56;25.00;74.40
39315;DHT22;28703;44.412;11.918;2023-04-16T15:17:26;25.00;74.50
39315;DHT22;28703;44.412;11.918;2023-04-16T15:19:53;25.20;75.10
39315;DHT22;28703;44.412;11.918;2023-04-16T15:22:22;25.30;74.00